Time;durP1;ratioP1;P1;durP2;ratioP2;P2;SDS_P1;SDS_P2;PMS_P1;PMS_P2;Temp;Humidity;BMP_temperature;BMP_pressure;BME280_temperature;BME280_humidity;BME280_pressure;Samples;Min_cycle;Max_cycle;Signal;HPM_P1;HPM_P2
2021/05/27 00:00:24;;;;;;;8.97;8.27;;;;;;;;;;4987565;28;20598;-67
2021/05/27 00:02:51;;;;;;;9.20;8.47;;;;;;;;;;4973088;28;20503;-66
2021/05/27 00:05:18;;;;;;;8.97;8.00;;;;;;;;;;4973799;28;20460;-67
2021/05/27 00:07:45;;;;;;;8.60;7.90;;;;;;;;;;4969789;28;20495;-66
2021/05/27 00:10:12;;;;;;;8.80;8.00;;;;;;;;;;4970316;28;20941;-66
2021/05/27 00:12:39;;;;;;;8.50;8.00;;;;;;;;;;4976330;28;20470;-66
2021/05/27 00:15:06;;;;;;;7.50;7.00;;;;;;;;;;4971919;28;20475;-66
2021/05/27 00:17:34;;;;;;;7.80;7.30;;;;;;;;;;4970264;28;20502;-69
2021/05/27 00:20:01;;;;;;;8.73;7.67;;;;;;;;;;4972954;28;21045;-67
2021/05/27 00:22:28;;;;;;;8.00;7.40;;;;;;;;;;4973338;28;20487;-67
2021/05/27 00:24:55;;;;;;;8.17;7.50;;;;;;;;;;4973559;28;20464;-66
2021/05/27 00:27:22;;;;;;;8.27;7.50;;;;;;;;;;4971434;28;20473;-66
2021/05/27 00:29:49;;;;;;;8.33;7.70;;;;;;;;;;4984550;28;20458;-67
2021/05/27 00:32:15;;;;;;;8.80;8.20;;;;;;;;;;4975813;28;20485;-67
2021/05/27 00:34:43;;;;;;;8.93;8.13;;;;;;;;;;4972259;28;20470;-66
2021/05/27 00:37:09;;;;;;;9.27;8.50;;;;;;;;;;4987928;28;20471;-66
2021/05/27 00:39:36;;;;;;;9.70;8.90;;;;;;;;;;4965954;28;20463;-66
2021/05/27 00:42:03;;;;;;;9.63;8.83;;;;;;;;;;4972745;28;20487;-66
2021/05/27 00:44:31;;;;;;;8.83;8.13;;;;;;;;;;4975349;28;20475;-66
2021/05/27 00:46:58;;;;;;;9.17;8.40;;;;;;;;;;4971095;28;20521;-65
2021/05/27 00:49:25;;;;;;;10.63;9.07;;;;;;;;;;4971560;28;20471;-66
2021/05/27 00:51:53;;;;;;;10.47;9.57;;;;;;;;;;4972657;28;20449;-66
2021/05/27 00:54:20;;;;;;;10.73;8.90;;;;;;;;;;4984226;28;21085;-66
2021/05/27 00:56:47;;;;;;;8.80;8.10;;;;;;;;;;4986042;28;20490;-66
2021/05/27 00:59:14;;;;;;;9.33;8.27;;;;;;;;;;4984176;28;20865;-66
2021/05/27 01:01:41;;;;;;;12.07;8.90;;;;;;;;;;4977498;28;20497;-66
2021/05/27 01:04:07;;;;;;;10.00;9.00;;;;;;;;;;4972214;28;20466;-67
2021/05/27 01:06:34;;;;;;;8.23;7.60;;;;;;;;;;4971348;28;20487;-68
2021/05/27 01:09:02;;;;;;;8.40;7.77;;;;;;;;;;4978979;28;20462;-67
2021/05/27 01:11:29;;;;;;;9.50;8.70;;;;;;;;;;4974988;28;20471;-68
2021/05/27 01:13:56;;;;;;;9.90;8.97;;;;;;;;;;4971418;28;20467;-69
2021/05/27 01:16:23;;;;;;;10.73;8.40;;;;;;;;;;4970302;28;20498;-70
2021/05/27 01:18:49;;;;;;;8.63;7.87;;;;;;;;;;4986557;28;20946;-68
2021/05/27 01:21:16;;;;;;;8.40;7.80;;;;;;;;;;4992084;28;20482;-68
2021/05/27 01:23:44;;;;;;;8.40;7.83;;;;;;;;;;4976223;28;20474;-65
2021/05/27 01:26:12;;;;;;;7.30;6.70;;;;;;;;;;4983421;28;20494;-66
2021/05/27 01:28:41;;;;;;;7.43;6.97;;;;;;;;;;4979067;28;20890;-68
2021/05/27 01:31:09;;;;;;;8.00;6.60;;;;;;;;;;4971605;28;20463;-67
2021/05/27 01:33:36;;;;;;;10.20;6.90;;;;;;;;;;4967253;28;20473;-67
2021/05/27 01:36:03;;;;;;;9.40;7.23;;;;;;;;;;4974298;28;21077;-68
2021/05/27 01:38:30;;;;;;;7.83;7.30;;;;;;;;;;4985702;28;21264;-70
2021/05/27 01:40:59;;;;;;;8.00;7.33;;;;;;;;;;4979600;28;20491;-75
2021/05/27 01:43:26;;;;;;;7.10;6.67;;;;;;;;;;4983752;28;20501;-68
2021/05/27 01:45:53;;;;;;;8.83;7.93;;;;;;;;;;4989209;28;20578;-70
2021/05/27 01:48:20;;;;;;;9.77;8.77;;;;;;;;;;4976555;28;20467;-67
2021/05/27 01:50:48;;;;;;;9.20;8.50;;;;;;;;;;4975305;28;20447;-67
2021/05/27 01:53:15;;;;;;;9.60;8.90;;;;;;;;;;4981910;28;20471;-71
2021/05/27 01:55:42;;;;;;;9.00;8.20;;;;;;;;;;4976289;28;20447;-68
2021/05/27 01:58:10;;;;;;;9.03;8.23;;;;;;;;;;4975148;28;20464;-70
2021/05/27 02:00:37;;;;;;;9.60;8.07;;;;;;;;;;4976029;28;20482;-68
2021/05/27 02:03:04;;;;;;;8.27;7.47;;;;;;;;;;4974608;28;20475;-73
2021/05/27 02:05:30;;;;;;;8.20;7.70;;;;;;;;;;4973853;28;20551;-69
2021/05/27 02:07:57;;;;;;;9.03;7.50;;;;;;;;;;4990902;23;20509;-63
2021/05/27 02:10:23;;;;;;;9.20;7.27;;;;;;;;;;4984709;28;20466;-64
2021/05/27 02:12:50;;;;;;;8.93;7.40;;;;;;;;;;4991787;28;20526;-64
2021/05/27 02:15:18;;;;;;;9.27;6.63;;;;;;;;;;4993434;28;20880;-65
2021/05/27 02:17:44;;;;;;;7.83;6.80;;;;;;;;;;4992851;28;20505;-65
2021/05/27 02:20:11;;;;;;;7.60;6.97;;;;;;;;;;4993117;28;20471;-65
2021/05/27 02:22:38;;;;;;;8.30;7.50;;;;;;;;;;4993185;28;20487;-65
2021/05/27 02:25:05;;;;;;;7.27;6.70;;;;;;;;;;4993817;28;20454;-63
2021/05/27 02:27:31;;;;;;;7.20;6.70;;;;;;;;;;4980807;28;20497;-65
2021/05/27 02:29:58;;;;;;;7.50;6.80;;;;;;;;;;4982928;28;20474;-66
2021/05/27 02:32:26;;;;;;;6.97;6.57;;;;;;;;;;4993520;28;20454;-65
2021/05/27 02:34:52;;;;;;;6.20;5.80;;;;;;;;;;4992904;28;20474;-65
2021/05/27 02:37:19;;;;;;;7.10;6.50;;;;;;;;;;4991100;28;20493;-65
2021/05/27 02:39:46;;;;;;;6.50;6.10;;;;;;;;;;4994082;28;20469;-65
2021/05/27 02:42:12;;;;;;;6.47;6.00;;;;;;;;;;4992521;28;20850;-65
2021/05/27 02:44:39;;;;;;;5.80;5.40;;;;;;;;;;4992168;28;20466;-64
2021/05/27 02:47:05;;;;;;;6.20;5.70;;;;;;;;;;4992279;28;20585;-65
2021/05/27 02:49:33;;;;;;;6.40;5.90;;;;;;;;;;4993278;28;20470;-65
2021/05/27 02:51:59;;;;;;;5.40;5.10;;;;;;;;;;4993105;28;20458;-65
2021/05/27 02:54:26;;;;;;;6.20;5.80;;;;;;;;;;4992451;28;20477;-65
2021/05/27 02:56:57;;;;;;;5.33;5.00;;;;;;;;;;4991903;28;20447;-65
2021/05/27 02:59:24;;;;;;;5.00;4.60;;;;;;;;;;4993558;28;20459;-65
2021/05/27 03:01:50;;;;;;;5.30;4.80;;;;;;;;;;4991048;28;20497;-65
2021/05/27 03:04:17;;;;;;;4.60;4.33;;;;;;;;;;4992787;28;20478;-65
2021/05/27 03:06:44;;;;;;;5.30;4.90;;;;;;;;;;4991174;28;20855;-64
2021/05/27 03:09:11;;;;;;;5.23;4.80;;;;;;;;;;4992354;28;21022;-63
2021/05/27 03:11:38;;;;;;;4.80;4.50;;;;;;;;;;4989707;28;20471;-64
2021/05/27 03:14:04;;;;;;;6.80;4.63;;;;;;;;;;4993129;28;20450;-64
2021/05/27 03:16:31;;;;;;;5.80;5.17;;;;;;;;;;4991614;28;20470;-63
2021/05/27 03:18:57;;;;;;;5.47;5.07;;;;;;;;;;4992352;28;20470;-63
2021/05/27 03:21:24;;;;;;;5.13;4.83;;;;;;;;;;4992627;28;20490;-63
2021/05/27 03:23:51;;;;;;;5.27;4.97;;;;;;;;;;4992190;28;20450;-63
2021/05/27 03:26:18;;;;;;;5.20;4.90;;;;;;;;;;4990982;28;20886;-64
2021/05/27 03:28:45;;;;;;;5.60;5.10;;;;;;;;;;4987272;28;20490;-63
2021/05/27 03:31:11;;;;;;;4.67;4.37;;;;;;;;;;4992657;28;20446;-64
2021/05/27 03:33:38;;;;;;;4.37;4.17;;;;;;;;;;4992259;28;20500;-65
2021/05/27 03:36:05;;;;;;;4.47;4.23;;;;;;;;;;4991574;28;20454;-63
2021/05/27 03:38:31;;;;;;;5.27;4.93;;;;;;;;;;4992003;28;20557;-65
2021/05/27 03:40:59;;;;;;;4.50;4.30;;;;;;;;;;4990813;28;20509;-64
2021/05/27 03:43:25;;;;;;;4.93;4.63;;;;;;;;;;4991619;28;20887;-65
2021/05/27 03:45:52;;;;;;;4.70;4.40;;;;;;;;;;4991129;28;20462;-65
2021/05/27 03:48:19;;;;;;;4.93;4.63;;;;;;;;;;4992725;28;20937;-65
2021/05/27 03:50:45;;;;;;;4.50;4.20;;;;;;;;;;4991694;28;20470;-65
2021/05/27 03:53:12;;;;;;;7.17;4.70;;;;;;;;;;4991793;28;20512;-66
2021/05/27 03:55:39;;;;;;;5.20;4.80;;;;;;;;;;4991482;28;20513;-65
2021/05/27 04:00:41;;;;;;;5.70;5.30;;;;;;;;;;4991368;28;20486;-65
2021/05/27 04:00:53;;;;;;;5.27;4.97;;;;;;;;;;4990403;28;20490;-65
2021/05/27 04:03:21;;;;;;;6.17;5.67;;;;;;;;;;4990813;28;20462;-65
2021/05/27 04:08:47;;;;;;;6.83;6.33;;;;;;;;;;4980598;28;20565;-64
2021/05/27 04:11:14;;;;;;;6.70;6.30;;;;;;;;;;4982061;28;20474;-64
2021/05/27 04:13:41;;;;;;;7.00;6.40;;;;;;;;;;4991889;28;20467;-65
2021/05/27 04:16:08;;;;;;;6.93;6.43;;;;;;;;;;4989786;28;20823;-65
2021/05/27 04:18:34;;;;;;;7.20;6.73;;;;;;;;;;4992306;28;20470;-65
2021/05/27 04:21:01;;;;;;;7.57;6.93;;;;;;;;;;4989330;28;20490;-66
2021/05/27 04:23:35;;;;;;;6.80;6.40;;;;;;;;;;4990931;28;20472;-65
2021/05/27 04:26:01;;;;;;;7.33;6.93;;;;;;;;;;4991311;28;20525;-65
2021/05/27 04:28:28;;;;;;;7.43;6.93;;;;;;;;;;4990491;28;20844;-65
2021/05/27 04:31:09;;;;;;;9.00;7.50;;;;;;;;;;4991855;28;21073;-65
2021/05/27 04:33:35;;;;;;;7.03;6.43;;;;;;;;;;4990531;28;20478;-64
2021/05/27 04:36:02;;;;;;;8.07;7.30;;;;;;;;;;4989657;28;20464;-64
2021/05/27 04:38:29;;;;;;;7.93;7.23;;;;;;;;;;4990965;28;20613;-65
2021/05/27 04:40:55;;;;;;;7.77;7.17;;;;;;;;;;4990491;28;20470;-65
2021/05/27 04:43:22;;;;;;;7.90;7.23;;;;;;;;;;4992256;28;20450;-64
2021/05/27 04:45:49;;;;;;;8.13;7.63;;;;;;;;;;4981949;28;20466;-64
2021/05/27 04:48:16;;;;;;;8.50;7.70;;;;;;;;;;4991113;28;20505;-64
2021/05/27 04:50:44;;;;;;;7.93;7.27;;;;;;;;;;4990504;28;20470;-66
2021/05/27 04:53:11;;;;;;;7.67;7.10;;;;;;;;;;4991938;28;20946;-64
2021/05/27 04:55:38;;;;;;;7.97;7.27;;;;;;;;;;4989945;28;20462;-64
2021/05/27 04:58:05;;;;;;;8.17;7.47;;;;;;;;;;4991695;28;20474;-64
2021/05/27 05:00:32;;;;;;;8.10;7.40;;;;;;;;;;4990809;28;20454;-64
2021/05/27 05:02:59;;;;;;;8.80;8.10;;;;;;;;;;4990508;28;20490;-63
2021/05/27 05:05:27;;;;;;;8.23;7.40;;;;;;;;;;4990421;28;20471;-63
2021/05/27 05:07:54;;;;;;;7.77;7.07;;;;;;;;;;4990701;28;20566;-63
2021/05/27 05:10:22;;;;;;;8.10;7.60;;;;;;;;;;4991633;28;20462;-64
2021/05/27 05:12:50;;;;;;;9.77;9.20;;;;;;;;;;4994306;28;20462;-64
2021/05/27 05:15:18;;;;;;;8.30;7.60;;;;;;;;;;4994113;28;20471;-64
2021/05/27 05:17:48;;;;;;;7.93;7.23;;;;;;;;;;4995555;28;20474;-64
2021/05/27 05:20:14;;;;;;;8.53;8.00;;;;;;;;;;4993158;28;20478;-63
2021/05/27 05:22:42;;;;;;;8.47;7.77;;;;;;;;;;4995154;28;20482;-63
2021/05/27 05:25:09;;;;;;;8.63;7.83;;;;;;;;;;4994040;28;20474;-66
2021/05/27 05:27:35;;;;;;;9.13;8.43;;;;;;;;;;4993631;28;20906;-64
2021/05/27 05:30:02;;;;;;;8.10;7.50;;;;;;;;;;4994835;28;20450;-63
2021/05/27 05:32:29;;;;;;;13.53;6.23;;;;;;;;;;4991196;28;20476;-66
2021/05/27 05:34:55;;;;;;;7.03;6.53;;;;;;;;;;4991715;28;20984;-64
2021/05/27 05:37:22;;;;;;;6.30;5.87;;;;;;;;;;4992815;28;20914;-64
2021/05/27 05:39:49;;;;;;;7.97;7.40;;;;;;;;;;4994306;28;20455;-64
2021/05/27 05:42:16;;;;;;;8.47;7.97;;;;;;;;;;4991508;28;20486;-64
2021/05/27 05:44:42;;;;;;;9.47;8.97;;;;;;;;;;4994212;28;20460;-64
2021/05/27 05:47:09;;;;;;;10.10;9.40;;;;;;;;;;4994050;28;20458;-65
2021/05/27 05:49:36;;;;;;;9.37;8.83;;;;;;;;;;4992757;28;20466;-64
2021/05/27 05:52:03;;;;;;;9.90;9.30;;;;;;;;;;4994709;28;20446;-64
2021/05/27 05:54:29;;;;;;;9.60;9.00;;;;;;;;;;4990938;28;20471;-65
2021/05/27 05:56:57;;;;;;;8.70;8.10;;;;;;;;;;4992891;28;20958;-63
2021/05/27 05:59:24;;;;;;;8.57;7.77;;;;;;;;;;4993239;28;21148;-64
2021/05/27 06:01:50;;;;;;;8.40;6.80;;;;;;;;;;4993499;28;20493;-65
2021/05/27 06:04:17;;;;;;;5.77;4.83;;;;;;;;;;4981417;28;20455;-64
2021/05/27 06:06:44;;;;;;;5.90;5.33;;;;;;;;;;4984181;28;20517;-65
2021/05/27 06:09:10;;;;;;;5.10;4.70;;;;;;;;;;4993562;28;20528;-65
2021/05/27 06:11:37;;;;;;;14.57;4.40;;;;;;;;;;4993591;28;20446;-64
2021/05/27 06:14:04;;;;;;;10.40;3.87;;;;;;;;;;4987763;28;21211;-64
2021/05/27 06:16:31;;;;;;;6.60;3.17;;;;;;;;;;4992906;28;20450;-65
2021/05/27 06:18:58;;;;;;;3.20;2.80;;;;;;;;;;4993382;28;20475;-65
2021/05/27 06:21:25;;;;;;;7.97;3.13;;;;;;;;;;4992979;28;21023;-65
2021/05/27 06:23:52;;;;;;;3.90;2.60;;;;;;;;;;4992789;28;20466;-65
2021/05/27 06:26:18;;;;;;;3.37;2.30;;;;;;;;;;4992418;28;20824;-65
2021/05/27 06:28:45;;;;;;;3.83;2.50;;;;;;;;;;4981992;28;20482;-65
2021/05/27 06:31:12;;;;;;;2.77;2.30;;;;;;;;;;4993870;28;20457;-65
2021/05/27 06:33:39;;;;;;;2.27;2.00;;;;;;;;;;4993209;28;20978;-65
2021/05/27 06:36:06;;;;;;;2.60;2.00;;;;;;;;;;4993432;28;20459;-65
2021/05/27 06:38:33;;;;;;;3.90;1.57;;;;;;;;;;4984440;28;20594;-66
2021/05/27 06:41:00;;;;;;;2.90;2.17;;;;;;;;;;4990768;28;20464;-65
2021/05/27 06:43:27;;;;;;;2.80;1.50;;;;;;;;;;4993458;28;20520;-65
2021/05/27 06:45:55;;;;;;;3.30;1.60;;;;;;;;;;4990202;28;20467;-66
2021/05/27 06:48:23;;;;;;;2.40;1.70;;;;;;;;;;4992759;28;20494;-65
2021/05/27 06:50:50;;;;;;;3.10;1.50;;;;;;;;;;4991900;28;20845;-66
2021/05/27 06:53:17;;;;;;;2.00;1.60;;;;;;;;;;4991577;28;20462;-65
2021/05/27 06:55:44;;;;;;;11.40;1.90;;;;;;;;;;4991258;28;20470;-65
2021/05/27 06:58:11;;;;;;;7.13;1.80;;;;;;;;;;4993732;28;20471;-65
2021/05/27 07:00:39;;;;;;;2.70;1.30;;;;;;;;;;4993036;28;20467;-66
2021/05/27 07:03:06;;;;;;;2.30;1.40;;;;;;;;;;4993854;28;20621;-65
2021/05/27 07:05:34;;;;;;;2.10;1.00;;;;;;;;;;4992292;28;20475;-64
2021/05/27 07:08:02;;;;;;;3.50;1.27;;;;;;;;;;4992988;28;20485;-65
2021/05/27 07:10:30;;;;;;;1.67;1.23;;;;;;;;;;4991129;28;20471;-65
2021/05/27 07:12:57;;;;;;;2.63;1.20;;;;;;;;;;4990127;28;20909;-65
2021/05/27 07:15:26;;;;;;;2.13;1.00;;;;;;;;;;4993270;28;20449;-65
2021/05/27 07:17:53;;;;;;;3.43;1.30;;;;;;;;;;4992635;28;20500;-65
2021/05/27 07:20:20;;;;;;;2.60;1.20;;;;;;;;;;4993256;28;20438;-65
2021/05/27 07:22:48;;;;;;;2.33;1.30;;;;;;;;;;4992983;28;20485;-65
2021/05/27 07:25:15;;;;;;;1.73;1.30;;;;;;;;;;4992806;28;20461;-65
2021/05/27 07:27:43;;;;;;;1.93;1.23;;;;;;;;;;4993148;28;20473;-64
2021/05/27 07:30:10;;;;;;;2.30;1.00;;;;;;;;;;4993127;28;20454;-65
2021/05/27 07:32:37;;;;;;;1.77;1.20;;;;;;;;;;4990153;28;20464;-65
2021/05/27 07:35:04;;;;;;;1.90;1.20;;;;;;;;;;4992839;28;20450;-67
2021/05/27 07:37:30;;;;;;;2.43;1.00;;;;;;;;;;4992071;28;20532;-66
2021/05/27 07:39:58;;;;;;;2.33;0.93;;;;;;;;;;4992533;28;20452;-64
2021/05/27 07:42:24;;;;;;;3.13;1.20;;;;;;;;;;4992672;28;20482;-65
2021/05/27 07:44:51;;;;;;;3.10;1.63;;;;;;;;;;4992994;28;20450;-65
2021/05/27 07:47:18;;;;;;;1.87;1.23;;;;;;;;;;4990467;28;20470;-65
2021/05/27 07:49:44;;;;;;;3.90;1.30;;;;;;;;;;4992872;28;20533;-65
2021/05/27 07:52:11;;;;;;;3.17;1.73;;;;;;;;;;4992667;28;20989;-65
2021/05/27 07:54:37;;;;;;;2.07;1.23;;;;;;;;;;4992522;28;20507;-66
2021/05/27 07:57:05;;;;;;;3.00;1.27;;;;;;;;;;4991247;28;20538;-64
2021/05/27 07:59:32;;;;;;;3.67;1.33;;;;;;;;;;4992754;28;20451;-65
2021/05/27 08:01:58;;;;;;;4.50;2.43;;;;;;;;;;4992487;28;20920;-66
2021/05/27 08:04:25;;;;;;;4.03;1.63;;;;;;;;;;4992612;28;20454;-67
2021/05/27 08:06:52;;;;;;;3.90;1.60;;;;;;;;;;4990772;28;20824;-67
2021/05/27 08:09:18;;;;;;;3.83;1.33;;;;;;;;;;5008761;23;20501;-66
2021/05/27 08:11:45;;;;;;;4.33;1.37;;;;;;;;;;4992800;28;20450;-66
2021/05/27 08:14:13;;;;;;;3.10;1.67;;;;;;;;;;4990817;28;20446;-66
2021/05/27 08:16:39;;;;;;;3.30;1.87;;;;;;;;;;4973298;28;20796;-66
2021/05/27 08:19:06;;;;;;;3.27;1.50;;;;;;;;;;4973715;28;20482;-66
2021/05/27 08:21:33;;;;;;;1.90;1.30;;;;;;;;;;4973775;28;20542;-66
2021/05/27 08:24:00;;;;;;;3.03;1.20;;;;;;;;;;4986167;28;20454;-66
2021/05/27 08:26:27;;;;;;;3.67;1.70;;;;;;;;;;4977768;28;21004;-66
2021/05/27 08:28:53;;;;;;;4.83;1.80;;;;;;;;;;4973108;28;20582;-66
2021/05/27 08:31:21;;;;;;;3.77;1.70;;;;;;;;;;4979632;28;20461;-66
2021/05/27 08:33:49;;;;;;;3.33;1.23;;;;;;;;;;4992314;28;20457;-66
2021/05/27 08:36:15;;;;;;;2.00;1.30;;;;;;;;;;4991960;28;20451;-66
2021/05/27 08:38:42;;;;;;;2.87;1.50;;;;;;;;;;4991647;28;20520;-67
2021/05/27 08:41:09;;;;;;;5.60;2.60;;;;;;;;;;4992736;28;20454;-70
2021/05/27 08:43:36;;;;;;;5.80;4.00;;;;;;;;;;4986921;28;20475;-68
2021/05/27 08:46:03;;;;;;;6.00;4.53;;;;;;;;;;4992360;28;20446;-70
2021/05/27 08:48:31;;;;;;;9.27;5.00;;;;;;;;;;4996084;28;20562;-68
2021/05/27 08:50:59;;;;;;;6.30;4.00;;;;;;;;;;4995895;28;20446;-69
2021/05/27 08:53:26;;;;;;;6.70;5.40;;;;;;;;;;4995848;28;20537;-69
2021/05/27 08:55:53;;;;;;;6.07;5.47;;;;;;;;;;4994574;28;21020;-68
2021/05/27 08:58:20;;;;;;;5.80;5.30;;;;;;;;;;4995818;28;20470;-68
2021/05/27 09:00:46;;;;;;;5.97;5.43;;;;;;;;;;4995516;28;20544;-65
2021/05/27 09:03:15;;;;;;;5.87;5.47;;;;;;;;;;4994291;28;21036;-62
2021/05/27 09:05:42;;;;;;;5.80;5.30;;;;;;;;;;4994489;28;20957;-70
2021/05/27 09:08:10;;;;;;;6.40;6.00;;;;;;;;;;4975947;28;20483;-65
2021/05/27 09:10:43;;;;;;;6.23;5.83;;;;;;;;;;4976056;28;20455;-64
2021/05/27 09:13:11;;;;;;;5.67;5.27;;;;;;;;;;4995085;28;20450;-64
2021/05/27 09:15:37;;;;;;;6.30;6.00;;;;;;;;;;4980870;28;20546;-65
2021/05/27 09:18:04;;;;;;;6.30;5.80;;;;;;;;;;4976193;28;20478;-64
2021/05/27 09:20:32;;;;;;;5.70;5.30;;;;;;;;;;4989409;28;20963;-65
2021/05/27 09:23:14;;;;;;;5.57;5.27;;;;;;;;;;4992868;28;20506;-63
2021/05/27 09:25:41;;;;;;;6.50;5.93;;;;;;;;;;4991758;28;20560;-65
2021/05/27 09:28:09;;;;;;;6.83;6.43;;;;;;;;;;4989660;28;21021;-64
2021/05/27 09:30:43;;;;;;;6.07;5.67;;;;;;;;;;4975882;28;20977;-65
2021/05/27 09:33:09;;;;;;;6.10;5.70;;;;;;;;;;4990134;28;20446;-65
2021/05/27 09:35:36;;;;;;;6.20;5.90;;;;;;;;;;4992524;28;20450;-66
2021/05/27 09:38:03;;;;;;;5.67;5.17;;;;;;;;;;4994117;28;20539;-65
2021/05/27 09:40:31;;;;;;;5.40;4.90;;;;;;;;;;4995232;28;20472;-65
2021/05/27 09:42:59;;;;;;;4.57;4.27;;;;;;;;;;4994827;28;20482;-67
2021/05/27 09:45:27;;;;;;;3.80;3.50;;;;;;;;;;4992952;28;20961;-67
2021/05/27 09:47:55;;;;;;;3.67;3.33;;;;;;;;;;4975484;28;20463;-67
2021/05/27 09:50:31;;;;;;;4.63;4.00;;;;;;;;;;4990865;28;20488;-67
2021/05/27 09:52:58;;;;;;;5.07;4.40;;;;;;;;;;4994941;28;20437;-67
2021/05/27 09:55:24;;;;;;;5.73;5.33;;;;;;;;;;4993229;28;20456;-66
2021/05/27 09:57:52;;;;;;;6.07;5.67;;;;;;;;;;4988746;28;20498;-70
2021/05/27 10:00:28;;;;;;;6.63;6.13;;;;;;;;;;4980987;28;20447;-65
2021/05/27 10:02:55;;;;;;;7.27;6.57;;;;;;;;;;4994359;28;20477;-68
2021/05/27 10:05:22;;;;;;;7.20;6.50;;;;;;;;;;4986187;28;20474;-65
2021/05/27 10:07:49;;;;;;;6.57;6.17;;;;;;;;;;4991399;28;20529;-67
2021/05/27 10:10:16;;;;;;;6.33;5.93;;;;;;;;;;4989215;28;20446;-66
2021/05/27 10:12:43;;;;;;;7.40;6.70;;;;;;;;;;4975035;28;20455;-67
2021/05/27 10:15:13;;;;;;;6.90;6.30;;;;;;;;;;4986086;28;20454;-66
2021/05/27 10:17:40;;;;;;;6.43;5.83;;;;;;;;;;4994272;28;20454;-66
2021/05/27 10:20:08;;;;;;;5.13;4.63;;;;;;;;;;4994399;28;20462;-67
2021/05/27 10:22:35;;;;;;;4.23;3.93;;;;;;;;;;4994430;28;21009;-67
2021/05/27 10:25:04;;;;;;;4.40;4.10;;;;;;;;;;4993136;28;20454;-68
2021/05/27 10:27:30;;;;;;;4.07;3.87;;;;;;;;;;4993131;28;20867;-67
2021/05/27 10:29:57;;;;;;;4.23;3.83;;;;;;;;;;4994484;28;20447;-68
2021/05/27 10:32:25;;;;;;;4.60;4.40;;;;;;;;;;4995290;28;20464;-67
2021/05/27 10:34:53;;;;;;;4.73;4.43;;;;;;;;;;5002866;28;20537;-69
2021/05/27 10:37:36;;;;;;;5.30;4.90;;;;;;;;;;5011841;28;20490;-67
2021/05/27 10:40:04;;;;;;;5.40;5.10;;;;;;;;;;5003740;28;20447;-68
2021/05/27 10:42:46;;;;;;;6.37;5.83;;;;;;;;;;5001561;28;20490;-68
2021/05/27 10:45:13;;;;;;;6.00;5.60;;;;;;;;;;4993718;28;20438;-68
2021/05/27 10:48:00;;;;;;;5.67;5.30;;;;;;;;;;4990327;28;20451;-68
2021/05/27 10:51:06;;;;;;;6.70;6.20;;;;;;;;;;4983724;28;20469;-68
2021/05/27 10:53:48;;;;;;;5.47;5.07;;;;;;;;;;4990746;28;20447;-68
2021/05/27 10:56:15;;;;;;;6.57;6.00;;;;;;;;;;4991716;28;20484;-68
2021/05/27 10:59:12;;;;;;;6.07;5.67;;;;;;;;;;4993286;28;21037;-69
2021/05/27 11:01:55;;;;;;;5.53;5.23;;;;;;;;;;4993991;28;20462;-68
2021/05/27 11:04:27;;;;;;;4.67;4.37;;;;;;;;;;4993508;28;20462;-68
2021/05/27 11:07:12;;;;;;;4.20;4.00;;;;;;;;;;4992002;28;20865;-68
2021/05/27 11:09:39;;;;;;;4.33;3.93;;;;;;;;;;4992402;28;20860;-68
2021/05/27 11:12:12;;;;;;;4.47;4.17;;;;;;;;;;4993824;28;20447;-68
2021/05/27 11:14:40;;;;;;;4.70;4.00;;;;;;;;;;4992765;28;20545;-68
2021/05/27 11:17:18;;;;;;;4.00;3.70;;;;;;;;;;4986087;28;20486;-68
2021/05/27 11:19:49;;;;;;;4.20;3.90;;;;;;;;;;4977300;28;20490;-71
2021/05/27 11:22:36;;;;;;;3.80;3.50;;;;;;;;;;4981480;28;20473;-70
2021/05/27 11:25:26;;;;;;;3.90;3.57;;;;;;;;;;4980193;28;20463;-68
2021/05/27 11:27:53;;;;;;;2.80;2.60;;;;;;;;;;4989392;28;21005;-68
2021/05/27 11:30:21;;;;;;;2.30;2.10;;;;;;;;;;4993112;28;20458;-70
2021/05/27 11:32:49;;;;;;;2.47;2.27;;;;;;;;;;4992982;28;20933;-71
2021/05/27 11:35:17;;;;;;;2.90;2.67;;;;;;;;;;4992089;28;20446;-68
2021/05/27 11:37:44;;;;;;;3.83;3.57;;;;;;;;;;4990590;28;20946;-68
2021/05/27 11:40:12;;;;;;;5.10;4.70;;;;;;;;;;4992143;28;20545;-69
2021/05/27 11:42:39;;;;;;;5.03;4.63;;;;;;;;;;4991882;28;20482;-68
2021/05/27 11:45:07;;;;;;;5.30;5.07;;;;;;;;;;4993085;28;20446;-68
2021/05/27 11:47:34;;;;;;;5.80;5.30;;;;;;;;;;4991155;28;20492;-68
2021/05/27 11:50:01;;;;;;;6.50;6.10;;;;;;;;;;4973434;28;20451;-69
2021/05/27 11:52:28;;;;;;;6.87;6.33;;;;;;;;;;4987380;28;20451;-68
2021/05/27 11:54:56;;;;;;;9.60;8.60;;;;;;;;;;4979620;28;20465;-68
2021/05/27 11:57:23;;;;;;;6.20;5.80;;;;;;;;;;4985070;28;20466;-69
2021/05/27 11:59:59;;;;;;;5.73;5.43;;;;;;;;;;4992299;28;20466;-69
2021/05/27 12:02:41;;;;;;;6.50;5.70;;;;;;;;;;4992383;28;21106;-68
2021/05/27 12:05:18;;;;;;;7.13;6.43;;;;;;;;;;4992247;28;20450;-69
2021/05/27 12:07:57;;;;;;;6.50;5.90;;;;;;;;;;4991730;28;20909;-68
2021/05/27 12:10:24;;;;;;;7.07;6.53;;;;;;;;;;4991445;28;20958;-69
2021/05/27 12:12:50;;;;;;;5.43;5.03;;;;;;;;;;4984097;28;20439;-68
2021/05/27 12:15:21;;;;;;;5.70;5.10;;;;;;;;;;4991527;28;20512;-68
2021/05/27 12:17:47;;;;;;;5.10;4.80;;;;;;;;;;4991854;28;20439;-69
2021/05/27 12:20:17;;;;;;;4.70;4.50;;;;;;;;;;4992223;28;20461;-69
2021/05/27 12:22:48;;;;;;;5.17;4.80;;;;;;;;;;4992207;28;20486;-68
2021/05/27 12:25:16;;;;;;;6.67;5.30;;;;;;;;;;4990018;28;20856;-68
2021/05/27 12:27:43;;;;;;;7.17;5.30;;;;;;;;;;4972586;28;20491;-69
2021/05/27 12:30:10;;;;;;;5.37;4.97;;;;;;;;;;4984654;28;20454;-69
2021/05/27 12:32:39;;;;;;;5.43;5.03;;;;;;;;;;4992396;28;20446;-68
2021/05/27 12:35:07;;;;;;;5.80;5.10;;;;;;;;;;4990384;28;20465;-68
2021/05/27 12:37:37;;;;;;;5.07;4.70;;;;;;;;;;4990667;28;20434;-68
2021/05/27 12:40:05;;;;;;;6.57;5.23;;;;;;;;;;4992237;28;20458;-69
2021/05/27 12:42:37;;;;;;;6.00;5.60;;;;;;;;;;4990672;28;20485;-69
2021/05/27 12:45:22;;;;;;;5.70;5.40;;;;;;;;;;4992030;28;20481;-68
2021/05/27 12:48:02;;;;;;;5.53;5.20;;;;;;;;;;4991826;28;20445;-68
2021/05/27 12:50:29;;;;;;;5.43;5.13;;;;;;;;;;4992241;28;20442;-69
2021/05/27 12:52:56;;;;;;;5.17;4.87;;;;;;;;;;4992150;28;20457;-68
2021/05/27 12:55:27;;;;;;;4.87;4.60;;;;;;;;;;4991402;28;20450;-68
2021/05/27 12:57:55;;;;;;;4.20;3.90;;;;;;;;;;4991476;28;20481;-69
2021/05/27 13:00:22;;;;;;;4.17;3.87;;;;;;;;;;4992161;28;20457;-69
2021/05/27 13:02:59;;;;;;;3.60;3.40;;;;;;;;;;4992064;28;20580;-68
2021/05/27 13:05:25;;;;;;;2.97;2.77;;;;;;;;;;4991212;28;20458;-68
2021/05/27 13:07:59;;;;;;;2.63;2.43;;;;;;;;;;4991861;28;20481;-68
2021/05/27 13:10:29;;;;;;;3.00;2.83;;;;;;;;;;4992401;28;20434;-68
2021/05/27 13:12:57;;;;;;;3.13;2.70;;;;;;;;;;4992220;28;20497;-69
2021/05/27 13:15:23;;;;;;;2.80;2.50;;;;;;;;;;4991212;28;21136;-68
2021/05/27 13:18:06;;;;;;;3.10;2.80;;;;;;;;;;4991773;28;20845;-68
2021/05/27 13:20:48;;;;;;;3.53;3.23;;;;;;;;;;4992237;28;20573;-69
2021/05/27 13:23:21;;;;;;;4.33;2.70;;;;;;;;;;4991462;28;20513;-69
2021/05/27 13:25:47;;;;;;;3.10;2.90;;;;;;;;;;4991122;28;20505;-68
2021/05/27 13:28:23;;;;;;;3.40;3.07;;;;;;;;;;4990967;28;20606;-69
2021/05/27 13:30:51;;;;;;;3.50;3.20;;;;;;;;;;4994391;28;20965;-68
2021/05/27 13:33:19;;;;;;;3.40;3.17;;;;;;;;;;4993350;28;20474;-69
2021/05/27 13:35:50;;;;;;;3.50;3.30;;;;;;;;;;4980839;28;20979;-70
2021/05/27 13:38:19;;;;;;;3.60;3.30;;;;;;;;;;4984892;28;21012;-69
2021/05/27 13:40:45;;;;;;;3.97;3.60;;;;;;;;;;4989614;28;20469;-69
2021/05/27 13:43:12;;;;;;;4.03;3.67;;;;;;;;;;4987673;28;20489;-69
2021/05/27 13:45:40;;;;;;;4.27;3.93;;;;;;;;;;4992551;28;20508;-70
2021/05/27 13:48:06;;;;;;;3.97;3.73;;;;;;;;;;4993819;28;20474;-69
2021/05/27 13:50:34;;;;;;;3.97;3.67;;;;;;;;;;4994550;28;20465;-69
2021/05/27 13:53:02;;;;;;;4.30;3.70;;;;;;;;;;4991961;28;20965;-69
2021/05/27 13:55:32;;;;;;;3.40;3.20;;;;;;;;;;4987370;28;20458;-69
2021/05/27 13:57:59;;;;;;;3.37;3.17;;;;;;;;;;4992217;28;20517;-69
2021/05/27 14:00:25;;;;;;;3.60;3.20;;;;;;;;;;4994601;28;20847;-69
2021/05/27 14:02:53;;;;;;;4.23;3.30;;;;;;;;;;4994212;28;20482;-69
2021/05/27 14:05:20;;;;;;;5.00;3.80;;;;;;;;;;4994048;28;20450;-69
2021/05/27 14:07:49;;;;;;;4.20;3.80;;;;;;;;;;4994364;28;20451;-69
2021/05/27 14:10:16;;;;;;;5.10;3.70;;;;;;;;;;4995365;23;20511;-65
2021/05/27 14:12:42;;;;;;;5.00;4.00;;;;;;;;;;4973253;28;20455;-64
2021/05/27 14:15:10;;;;;;;3.50;3.20;;;;;;;;;;4973352;28;20456;-66
2021/05/27 14:17:36;;;;;;;4.00;3.60;;;;;;;;;;4974405;28;20506;-65
2021/05/27 14:20:05;;;;;;;3.17;2.97;;;;;;;;;;4974203;28;20503;-64
2021/05/27 14:22:32;;;;;;;4.33;3.20;;;;;;;;;;4975018;28;20491;-65
2021/05/27 14:24:58;;;;;;;3.60;3.13;;;;;;;;;;4973663;28;20467;-64
2021/05/27 14:27:25;;;;;;;3.40;3.10;;;;;;;;;;4974256;28;20436;-64
2021/05/27 14:29:51;;;;;;;3.50;3.20;;;;;;;;;;4967908;28;20998;-65
2021/05/27 14:32:18;;;;;;;5.83;3.40;;;;;;;;;;4973137;28;20459;-64
2021/05/27 14:34:45;;;;;;;4.20;3.90;;;;;;;;;;4974549;28;20455;-64
2021/05/27 14:37:12;;;;;;;4.20;3.80;;;;;;;;;;4965831;28;20466;-64
2021/05/27 14:39:40;;;;;;;5.00;4.53;;;;;;;;;;4973563;28;20471;-67
2021/05/27 14:42:07;;;;;;;4.70;4.40;;;;;;;;;;4973211;28;20950;-63
2021/05/27 14:44:33;;;;;;;5.10;4.80;;;;;;;;;;4969625;28;20455;-62
2021/05/27 14:47:00;;;;;;;4.83;4.53;;;;;;;;;;4965334;28;20465;-66
2021/05/27 14:49:27;;;;;;;4.80;4.53;;;;;;;;;;4974550;28;20471;-65
2021/05/27 14:51:54;;;;;;;4.83;4.53;;;;;;;;;;4973456;28;20483;-64